sensor_id;sensor_type;location;lat;lon;timestamp;P1;durP1;ratioP1;P2;durP2;ratioP2
31095;SDS011;17749;51.962;8.560;2022-12-17T06:00:29;30.95;;;18.17;;
31095;SDS011;17749;51.962;8.560;2022-12-17T06:03:15;35.65;;;20.83;;
31095;SDS011;17749;51.962;8.560;2022-12-17T06:06:01;37.05;;;20.90;;
31095;SDS011;17749;51.962;8.560;2022-12-17T06:08:47;38.47;;;22.00;;
31095;SDS011;17749;51.962;8.560;2022-12-17T06:11:32;38.85;;;20.88;;
31095;SDS011;17749;51.962;8.560;2022-12-17T06:14:22;45.97;;;23.85;;
31095;SDS011;17749;51.962;8.560;2022-12-17T06:17:07;36.30;;;20.90;;
31095;SDS011;17749;51.962;8.560;2022-12-17T06:19:53;37.20;;;20.63;;
31095;SDS011;17749;51.962;8.560;2022-12-17T06:22:38;37.05;;;21.15;;
31095;SDS011;17749;51.962;8.560;2022-12-17T06:25:25;41.70;;;22.58;;
31095;SDS011;17749;51.962;8.560;2022-12-17T06:28:11;40.72;;;21.88;;
31095;SDS011;17749;51.962;8.560;2022-12-17T06:30:59;43.53;;;21.67;;
31095;SDS011;17749;51.962;8.560;2022-12-17T06:33:55;44.38;;;21.88;;
31095;SDS011;17749;51.962;8.560;2022-12-17T06:36:48;41.88;;;20.40;;
31095;SDS011;17749;51.962;8.560;2022-12-17T06:39:52;41.88;;;21.50;;
31095;SDS011;17749;51.962;8.560;2022-12-17T06:42:55;44.40;;;23.25;;
31095;SDS011;17749;51.962;8.560;2022-12-17T06:45:50;33.90;;;21.27;;
31095;SDS011;17749;51.962;8.560;2022-12-17T06:48:44;39.40;;;21.27;;
31095;SDS011;17749;51.962;8.560;2022-12-17T06:51:36;40.10;;;22.38;;
31095;SDS011;17749;51.962;8.560;2022-12-17T06:57:58;43.88;;;21.35;;
31095;SDS011;17749;51.962;8.560;2022-12-17T07:00:56;39.90;;;20.45;;
31095;SDS011;17749;51.962;8.560;2022-12-17T07:03:44;42.47;;;21.20;;
31095;SDS011;17749;51.962;8.560;2022-12-17T07:06:39;44.20;;;22.17;;
31095;SDS011;17749;51.962;8.560;2022-12-17T07:09:55;40.50;;;23.33;;
31095;SDS011;17749;51.962;8.560;2022-12-17T07:12:50;36.88;;;21.67;;
31095;SDS011;17749;51.962;8.560;2022-12-17T07:15:55;45.33;;;22.23;;
31095;SDS011;17749;51.962;8.560;2022-12-17T07:18:52;37.58;;;21.02;;
31095;SDS011;17749;51.962;8.560;2022-12-17T07:21:43;41.03;;;20.58;;
31095;SDS011;17749;51.962;8.560;2022-12-17T07:24:40;40.85;;;21.80;;
31095;SDS011;17749;51.962;8.560;2022-12-17T07:27:53;40.08;;;21.70;;
31095;SDS011;17749;51.962;8.560;2022-12-17T07:30:57;37.70;;;21.55;;
31095;SDS011;17749;51.962;8.560;2022-12-17T07:33:43;46.00;;;22.23;;
31095;SDS011;17749;51.962;8.560;2022-12-17T07:36:28;46.25;;;23.48;;
31095;SDS011;17749;51.962;8.560;2022-12-17T07:39:21;44.13;;;21.55;;
31095;SDS011;17749;51.962;8.560;2022-12-17T07:42:07;46.45;;;23.27;;
31095;SDS011;17749;51.962;8.560;2022-12-17T07:44:52;42.65;;;23.50;;
31095;SDS011;17749;51.962;8.560;2022-12-17T07:47:38;47.30;;;22.35;;
31095;SDS011;17749;51.962;8.560;2022-12-17T07:50:23;43.58;;;21.27;;
31095;SDS011;17749;51.962;8.560;2022-12-17T07:53:09;45.20;;;23.85;;
31095;SDS011;17749;51.962;8.560;2022-12-17T07:55:54;47.35;;;25.95;;
31095;SDS011;17749;51.962;8.560;2022-12-17T07:58:40;55.80;;;25.38;;
31095;SDS011;17749;51.962;8.560;2022-12-17T08:01:29;58.37;;;24.33;;
31095;SDS011;17749;51.962;8.560;2022-12-17T08:04:15;52.30;;;24.42;;
31095;SDS011;17749;51.962;8.560;2022-12-17T08:07:00;51.28;;;23.83;;
31095;SDS011;17749;51.962;8.560;2022-12-17T08:09:46;56.33;;;25.52;;
31095;SDS011;17749;51.962;8.560;2022-12-17T08:12:34;50.80;;;23.23;;
31095;SDS011;17749;51.962;8.560;2022-12-17T08:15:19;57.85;;;24.33;;
31095;SDS011;17749;51.962;8.560;2022-12-17T08:18:05;55.13;;;25.02;;
31095;SDS011;17749;51.962;8.560;2022-12-17T08:20:57;51.00;;;23.63;;
31095;SDS011;17749;51.962;8.560;2022-12-17T08:23:52;51.13;;;24.25;;
31095;SDS011;17749;51.962;8.560;2022-12-17T08:26:37;48.63;;;23.88;;
31095;SDS011;17749;51.962;8.560;2022-12-17T08:29:25;44.75;;;21.75;;
31095;SDS011;17749;51.962;8.560;2022-12-17T08:32:17;46.42;;;23.52;;
31095;SDS011;17749;51.962;8.560;2022-12-17T08:35:05;49.15;;;24.17;;
31095;SDS011;17749;51.962;8.560;2022-12-17T08:37:52;52.58;;;24.65;;
31095;SDS011;17749;51.962;8.560;2022-12-17T08:40:39;46.38;;;23.92;;
31095;SDS011;17749;51.962;8.560;2022-12-17T08:43:26;54.78;;;24.92;;
31095;SDS011;17749;51.962;8.560;2022-12-17T08:46:15;43.88;;;21.27;;
31095;SDS011;17749;51.962;8.560;2022-12-17T08:49:10;43.97;;;21.77;;
31095;SDS011;17749;51.962;8.560;2022-12-17T08:52:02;47.65;;;22.77;;
31095;SDS011;17749;51.962;8.560;2022-12-17T08:54:49;45.45;;;25.00;;
31095;SDS011;17749;51.962;8.560;2022-12-17T08:57:41;49.80;;;22.45;;
31095;SDS011;17749;51.962;8.560;2022-12-17T09:00:37;43.75;;;24.33;;
31095;SDS011;17749;51.962;8.560;2022-12-17T09:03:23;47.05;;;22.50;;
31095;SDS011;17749;51.962;8.560;2022-12-17T09:06:09;38.05;;;22.15;;
31095;SDS011;17749;51.962;8.560;2022-12-17T09:09:40;43.13;;;21.25;;
31095;SDS011;17749;51.962;8.560;2022-12-17T09:12:26;43.17;;;20.95;;
31095;SDS011;17749;51.962;8.560;2022-12-17T09:15:11;36.67;;;21.23;;
31095;SDS011;17749;51.962;8.560;2022-12-17T09:17:57;44.47;;;23.40;;
31095;SDS011;17749;51.962;8.560;2022-12-17T09:20:42;37.88;;;21.52;;
31095;SDS011;17749;51.962;8.560;2022-12-17T09:23:27;43.67;;;22.83;;
31095;SDS011;17749;51.962;8.560;2022-12-17T09:26:12;42.45;;;24.27;;
31095;SDS011;17749;51.962;8.560;2022-12-17T09:28:58;44.70;;;21.15;;
31095;SDS011;17749;51.962;8.560;2022-12-17T09:31:43;44.85;;;23.73;;
31095;SDS011;17749;51.962;8.560;2022-12-17T09:34:29;41.60;;;21.45;;
31095;SDS011;17749;51.962;8.560;2022-12-17T09:37:14;40.60;;;20.70;;
31095;SDS011;17749;51.962;8.560;2022-12-17T09:39:59;37.47;;;21.50;;
31095;SDS011;17749;51.962;8.560;2022-12-17T09:45:52;39.50;;;21.13;;
31095;SDS011;17749;51.962;8.560;2022-12-17T09:49:12;43.33;;;23.38;;
31095;SDS011;17749;51.962;8.560;2022-12-17T09:52:02;37.50;;;21.30;;
31095;SDS011;17749;51.962;8.560;2022-12-17T09:55:30;44.85;;;23.25;;
31095;SDS011;17749;51.962;8.560;2022-12-17T10:01:05;44.30;;;24.08;;
31095;SDS011;17749;51.962;8.560;2022-12-17T10:04:04;48.22;;;24.85;;
31095;SDS011;17749;51.962;8.560;2022-12-17T10:06:55;50.30;;;24.10;;
31095;SDS011;17749;51.962;8.560;2022-12-17T10:09:40;49.67;;;25.25;;
31095;SDS011;17749;51.962;8.560;2022-12-17T10:12:26;40.22;;;23.55;;
31095;SDS011;17749;51.962;8.560;2022-12-17T10:15:14;42.33;;;23.08;;
31095;SDS011;17749;51.962;8.560;2022-12-17T10:18:06;40.63;;;22.43;;
31095;SDS011;17749;51.962;8.560;2022-12-17T10:20:57;46.55;;;24.55;;
31095;SDS011;17749;51.962;8.560;2022-12-17T10:23:44;40.88;;;24.88;;
31095;SDS011;17749;51.962;8.560;2022-12-17T10:26:31;39.50;;;22.05;;
31095;SDS011;17749;51.962;8.560;2022-12-17T10:29:19;43.63;;;23.40;;
31095;SDS011;17749;51.962;8.560;2022-12-17T10:34:58;37.92;;;21.23;;
31095;SDS011;17749;51.962;8.560;2022-12-17T10:37:46;43.67;;;23.08;;
31095;SDS011;17749;51.962;8.560;2022-12-17T10:40:32;43.50;;;23.33;;
31095;SDS011;17749;51.962;8.560;2022-12-17T10:43:28;42.42;;;24.02;;
31095;SDS011;17749;51.962;8.560;2022-12-17T10:46:29;52.60;;;25.85;;
31095;SDS011;17749;51.962;8.560;2022-12-17T10:49:17;160.02;;;75.32;;
31095;SDS011;17749;51.962;8.560;2022-12-17T10:52:05;62.50;;;34.05;;
31095;SDS011;17749;51.962;8.560;2022-12-17T10:55:19;42.55;;;23.90;;
31095;SDS011;17749;51.962;8.560;2022-12-17T10:58:13;42.88;;;25.35;;
31095;SDS011;17749;51.962;8.560;2022-12-17T11:01:01;47.30;;;25.52;;
31095;SDS011;17749;51.962;8.560;2022-12-17T11:03:51;39.75;;;23.77;;
31095;SDS011;17749;51.962;8.560;2022-12-17T11:12:42;40.20;;;21.63;;
31095;SDS011;17749;51.962;8.560;2022-12-17T11:15:48;38.95;;;22.45;;
31095;SDS011;17749;51.962;8.560;2022-12-17T11:18:40;42.38;;;24.60;;
31095;SDS011;17749;51.962;8.560;2022-12-17T11:21:35;46.28;;;24.23;;
31095;SDS011;17749;51.962;8.560;2022-12-17T11:24:34;49.65;;;26.67;;
31095;SDS011;17749;51.962;8.560;2022-12-17T11:27:26;41.78;;;25.23;;
31095;SDS011;17749;51.962;8.560;2022-12-17T11:30:16;43.40;;;23.52;;
31095;SDS011;17749;51.962;8.560;2022-12-17T11:36:06;52.65;;;24.40;;
31095;SDS011;17749;51.962;8.560;2022-12-17T11:39:08;42.28;;;23.17;;
31095;SDS011;17749;51.962;8.560;2022-12-17T11:42:15;41.10;;;21.15;;
31095;SDS011;17749;51.962;8.560;2022-12-17T11:48:14;45.50;;;24.50;;
31095;SDS011;17749;51.962;8.560;2022-12-17T11:51:07;45.88;;;23.20;;
31095;SDS011;17749;51.962;8.560;2022-12-17T11:54:17;41.65;;;23.45;;
31095;SDS011;17749;51.962;8.560;2022-12-17T12:00:15;39.13;;;22.30;;
31095;SDS011;17749;51.962;8.560;2022-12-17T12:06:29;35.55;;;22.55;;
31095;SDS011;17749;51.962;8.560;2022-12-17T12:09:30;39.45;;;20.92;;
31095;SDS011;17749;51.962;8.560;2022-12-17T12:25:32;44.72;;;23.52;;
31095;SDS011;17749;51.962;8.560;2022-12-17T12:31:21;44.28;;;22.98;;
31095;SDS011;17749;51.962;8.560;2022-12-17T12:34:19;39.92;;;22.30;;
31095;SDS011;17749;51.962;8.560;2022-12-17T12:37:11;34.08;;;19.60;;
31095;SDS011;17749;51.962;8.560;2022-12-17T12:40:21;32.47;;;19.92;;
31095;SDS011;17749;51.962;8.560;2022-12-17T12:49:18;38.40;;;20.15;;
31095;SDS011;17749;51.962;8.560;2022-12-17T12:52:10;38.03;;;20.47;;
31095;SDS011;17749;51.962;8.560;2022-12-17T12:55:00;41.17;;;22.13;;
31095;SDS011;17749;51.962;8.560;2022-12-17T12:57:56;40.55;;;24.63;;
31095;SDS011;17749;51.962;8.560;2022-12-17T13:17:03;49.28;;;26.13;;
31095;SDS011;17749;51.962;8.560;2022-12-17T13:19:35;55.20;;;28.05;;
31095;SDS011;17749;51.962;8.560;2022-12-17T13:22:09;53.43;;;28.27;;
31095;SDS011;17749;51.962;8.560;2022-12-17T13:24:36;54.40;;;31.50;;
31095;SDS011;17749;51.962;8.560;2022-12-17T13:27:04;60.13;;;28.67;;
31095;SDS011;17749;51.962;8.560;2022-12-17T13:29:51;55.83;;;29.63;;
31095;SDS011;17749;51.962;8.560;2022-12-17T13:32:23;56.15;;;29.52;;
31095;SDS011;17749;51.962;8.560;2022-12-17T13:38:00;57.65;;;27.98;;
31095;SDS011;17749;51.962;8.560;2022-12-17T13:43:44;60.13;;;28.58;;
31095;SDS011;17749;51.962;8.560;2022-12-17T13:46:19;66.33;;;33.57;;
31095;SDS011;17749;51.962;8.560;2022-12-17T13:48:59;69.43;;;32.78;;
31095;SDS011;17749;51.962;8.560;2022-12-17T13:51:29;50.92;;;27.65;;
31095;SDS011;17749;51.962;8.560;2022-12-17T13:54:01;56.88;;;28.42;;
31095;SDS011;17749;51.962;8.560;2022-12-17T13:56:31;59.63;;;30.75;;
31095;SDS011;17749;51.962;8.560;2022-12-17T13:59:01;66.75;;;31.00;;
31095;SDS011;17749;51.962;8.560;2022-12-17T14:01:44;53.80;;;30.60;;
31095;SDS011;17749;51.962;8.560;2022-12-17T14:04:23;60.45;;;31.10;;
31095;SDS011;17749;51.962;8.560;2022-12-17T14:06:53;50.75;;;29.45;;
31095;SDS011;17749;51.962;8.560;2022-12-17T14:09:29;110.60;;;47.55;;
31095;SDS011;17749;51.962;8.560;2022-12-17T14:12:01;88.38;;;40.33;;
31095;SDS011;17749;51.962;8.560;2022-12-17T14:17:24;60.55;;;31.05;;
31095;SDS011;17749;51.962;8.560;2022-12-17T14:22:33;63.17;;;31.65;;
31095;SDS011;17749;51.962;8.560;2022-12-17T14:25:03;60.13;;;30.60;;
31095;SDS011;17749;51.962;8.560;2022-12-17T14:27:39;61.25;;;31.48;;
31095;SDS011;17749;51.962;8.560;2022-12-17T14:30:20;55.78;;;28.80;;
31095;SDS011;17749;51.962;8.560;2022-12-17T14:32:49;62.22;;;30.90;;
31095;SDS011;17749;51.962;8.560;2022-12-17T14:35:24;57.38;;;29.05;;
31095;SDS011;17749;51.962;8.560;2022-12-17T14:37:53;64.30;;;31.30;;
31095;SDS011;17749;51.962;8.560;2022-12-17T14:40:22;57.95;;;30.08;;
31095;SDS011;17749;51.962;8.560;2022-12-17T14:42:52;53.83;;;30.30;;
31095;SDS011;17749;51.962;8.560;2022-12-17T14:45:25;58.15;;;29.05;;
31095;SDS011;17749;51.962;8.560;2022-12-17T14:47:57;61.47;;;32.38;;
31095;SDS011;17749;51.962;8.560;2022-12-17T14:50:27;57.67;;;30.92;;
31095;SDS011;17749;51.962;8.560;2022-12-17T14:52:57;50.00;;;27.95;;
31095;SDS011;17749;51.962;8.560;2022-12-17T14:55:34;56.55;;;28.00;;
31095;SDS011;17749;51.962;8.560;2022-12-17T14:58:22;57.80;;;32.17;;
31095;SDS011;17749;51.962;8.560;2022-12-17T15:01:14;61.67;;;29.95;;
31095;SDS011;17749;51.962;8.560;2022-12-17T15:03:40;56.53;;;29.75;;
31095;SDS011;17749;51.962;8.560;2022-12-17T15:06:12;56.25;;;31.08;;
31095;SDS011;17749;51.962;8.560;2022-12-17T15:08:43;56.50;;;28.95;;
31095;SDS011;17749;51.962;8.560;2022-12-17T15:11:14;56.47;;;31.42;;
31095;SDS011;17749;51.962;8.560;2022-12-17T15:13:43;57.72;;;28.92;;
31095;SDS011;17749;51.962;8.560;2022-12-17T15:16:10;57.47;;;29.27;;
31095;SDS011;17749;51.962;8.560;2022-12-17T15:18:37;57.60;;;30.23;;
31095;SDS011;17749;51.962;8.560;2022-12-17T15:21:05;58.88;;;30.77;;
31095;SDS011;17749;51.962;8.560;2022-12-17T15:23:32;52.70;;;29.65;;
31095;SDS011;17749;51.962;8.560;2022-12-17T15:25:59;59.83;;;28.92;;
31095;SDS011;17749;51.962;8.560;2022-12-17T15:28:26;56.60;;;29.35;;
31095;SDS011;17749;51.962;8.560;2022-12-17T15:30:53;59.58;;;28.15;;
31095;SDS011;17749;51.962;8.560;2022-12-17T15:33:20;62.30;;;29.08;;
31095;SDS011;17749;51.962;8.560;2022-12-17T15:35:47;59.13;;;30.08;;
31095;SDS011;17749;51.962;8.560;2022-12-17T15:38:14;60.13;;;30.60;;
31095;SDS011;17749;51.962;8.560;2022-12-17T15:40:41;54.88;;;29.60;;
31095;SDS011;17749;51.962;8.560;2022-12-17T15:43:08;51.97;;;27.98;;
31095;SDS011;17749;51.962;8.560;2022-12-17T15:45:37;56.70;;;28.83;;
31095;SDS011;17749;51.962;8.560;2022-12-17T15:48:04;60.58;;;29.02;;
31095;SDS011;17749;51.962;8.560;2022-12-17T15:50:31;55.55;;;29.48;;
31095;SDS011;17749;51.962;8.560;2022-12-17T15:52:59;54.83;;;30.73;;
31095;SDS011;17749;51.962;8.560;2022-12-17T15:55:26;57.58;;;29.02;;
31095;SDS011;17749;51.962;8.560;2022-12-17T15:57:53;58.10;;;30.00;;
31095;SDS011;17749;51.962;8.560;2022-12-17T16:00:21;56.40;;;29.30;;
31095;SDS011;17749;51.962;8.560;2022-12-17T16:02:48;61.92;;;31.45;;
31095;SDS011;17749;51.962;8.560;2022-12-17T16:05:15;53.47;;;29.35;;
31095;SDS011;17749;51.962;8.560;2022-12-17T16:07:43;54.15;;;30.27;;
31095;SDS011;17749;51.962;8.560;2022-12-17T16:10:10;55.78;;;28.35;;
31095;SDS011;17749;51.962;8.560;2022-12-17T16:12:38;56.03;;;29.48;;
31095;SDS011;17749;51.962;8.560;2022-12-17T16:15:05;57.65;;;29.35;;
31095;SDS011;17749;51.962;8.560;2022-12-17T16:17:33;54.05;;;26.83;;
31095;SDS011;17749;51.962;8.560;2022-12-17T16:20:00;53.72;;;29.45;;
31095;SDS011;17749;51.962;8.560;2022-12-17T16:22:27;58.95;;;30.00;;
31095;SDS011;17749;51.962;8.560;2022-12-17T16:24:54;57.05;;;29.15;;
31095;SDS011;17749;51.962;8.560;2022-12-17T16:27:21;57.97;;;29.60;;
31095;SDS011;17749;51.962;8.560;2022-12-17T16:29:48;51.75;;;28.92;;
31095;SDS011;17749;51.962;8.560;2022-12-17T16:32:15;59.67;;;28.42;;
31095;SDS011;17749;51.962;8.560;2022-12-17T16:34:43;55.63;;;29.52;;
31095;SDS011;17749;51.962;8.560;2022-12-17T16:37:10;57.13;;;29.50;;
31095;SDS011;17749;51.962;8.560;2022-12-17T16:39:37;62.85;;;29.63;;
31095;SDS011;17749;51.962;8.560;2022-12-17T16:42:04;57.60;;;29.15;;
31095;SDS011;17749;51.962;8.560;2022-12-17T16:44:31;53.17;;;28.52;;
31095;SDS011;17749;51.962;8.560;2022-12-17T16:46:58;58.03;;;29.40;;
31095;SDS011;17749;51.962;8.560;2022-12-17T16:49:25;56.53;;;29.65;;
31095;SDS011;17749;51.962;8.560;2022-12-17T16:51:52;58.92;;;29.55;;
31095;SDS011;17749;51.962;8.560;2022-12-17T16:54:24;51.90;;;28.35;;
31095;SDS011;17749;51.962;8.560;2022-12-17T16:59:20;44.40;;;24.25;;
31095;SDS011;17749;51.962;8.560;2022-12-17T17:01:48;39.15;;;22.15;;
31095;SDS011;17749;51.962;8.560;2022-12-17T17:04:18;43.08;;;23.42;;
31095;SDS011;17749;51.962;8.560;2022-12-17T17:06:47;43.80;;;23.13;;
31095;SDS011;17749;51.962;8.560;2022-12-17T17:09:17;40.47;;;23.30;;
31095;SDS011;17749;51.962;8.560;2022-12-17T17:11:45;43.42;;;23.40;;
31095;SDS011;17749;51.962;8.560;2022-12-17T17:14:17;40.83;;;23.55;;
31095;SDS011;17749;51.962;8.560;2022-12-17T17:16:44;42.25;;;22.95;;
31095;SDS011;17749;51.962;8.560;2022-12-17T17:19:12;52.75;;;26.88;;
31095;SDS011;17749;51.962;8.560;2022-12-17T17:21:40;47.58;;;26.00;;
31095;SDS011;17749;51.962;8.560;2022-12-17T17:24:12;48.67;;;24.50;;
31095;SDS011;17749;51.962;8.560;2022-12-17T17:26:47;50.08;;;26.17;;
31095;SDS011;17749;51.962;8.560;2022-12-17T17:29:15;48.92;;;25.95;;
31095;SDS011;17749;51.962;8.560;2022-12-17T17:31:42;39.67;;;22.40;;
31095;SDS011;17749;51.962;8.560;2022-12-17T17:34:30;46.38;;;23.48;;
31095;SDS011;17749;51.962;8.560;2022-12-17T17:36:56;39.78;;;24.25;;
31095;SDS011;17749;51.962;8.560;2022-12-17T17:39:23;51.28;;;24.83;;
31095;SDS011;17749;51.962;8.560;2022-12-17T17:41:51;41.47;;;24.02;;
31095;SDS011;17749;51.962;8.560;2022-12-17T17:44:18;39.42;;;23.73;;
31095;SDS011;17749;51.962;8.560;2022-12-17T17:46:44;43.92;;;25.65;;
31095;SDS011;17749;51.962;8.560;2022-12-17T17:49:11;50.53;;;26.65;;
31095;SDS011;17749;51.962;8.560;2022-12-17T17:51:40;43.70;;;27.10;;
31095;SDS011;17749;51.962;8.560;2022-12-17T17:54:29;54.33;;;27.63;;
31095;SDS011;17749;51.962;8.560;2022-12-17T17:56:56;48.85;;;27.63;;
31095;SDS011;17749;51.962;8.560;2022-12-17T17:59:23;54.42;;;28.55;;
31095;SDS011;17749;51.962;8.560;2022-12-17T18:01:58;50.65;;;27.77;;
31095;SDS011;17749;51.962;8.560;2022-12-17T18:04:26;54.25;;;30.25;;
31095;SDS011;17749;51.962;8.560;2022-12-17T18:06:53;57.75;;;28.48;;
31095;SDS011;17749;51.962;8.560;2022-12-17T18:09:40;49.35;;;27.23;;
31095;SDS011;17749;51.962;8.560;2022-12-17T18:12:07;51.85;;;28.55;;
31095;SDS011;17749;51.962;8.560;2022-12-17T18:14:53;50.28;;;25.55;;
31095;SDS011;17749;51.962;8.560;2022-12-17T18:17:40;48.47;;;25.83;;
31095;SDS011;17749;51.962;8.560;2022-12-17T18:20:07;41.75;;;25.10;;
31095;SDS011;17749;51.962;8.560;2022-12-17T18:22:35;49.45;;;26.02;;
31095;SDS011;17749;51.962;8.560;2022-12-17T18:25:03;43.42;;;26.17;;
31095;SDS011;17749;51.962;8.560;2022-12-17T18:27:30;45.95;;;25.35;;
31095;SDS011;17749;51.962;8.560;2022-12-17T18:29:57;42.00;;;24.40;;
31095;SDS011;17749;51.962;8.560;2022-12-17T18:32:24;38.42;;;24.52;;
31095;SDS011;17749;51.962;8.560;2022-12-17T18:34:51;44.58;;;25.75;;
31095;SDS011;17749;51.962;8.560;2022-12-17T18:37:18;50.05;;;26.35;;
31095;SDS011;17749;51.962;8.560;2022-12-17T18:39:45;47.10;;;24.90;;
31095;SDS011;17749;51.962;8.560;2022-12-17T18:42:12;42.30;;;24.02;;
31095;SDS011;17749;51.962;8.560;2022-12-17T18:44:58;40.42;;;23.05;;
31095;SDS011;17749;51.962;8.560;2022-12-17T18:47:25;40.75;;;24.08;;
31095;SDS011;17749;51.962;8.560;2022-12-17T18:49:52;40.75;;;22.58;;
31095;SDS011;17749;51.962;8.560;2022-12-17T18:52:19;41.72;;;21.60;;
31095;SDS011;17749;51.962;8.560;2022-12-17T18:54:48;38.35;;;21.33;;
31095;SDS011;17749;51.962;8.560;2022-12-17T18:57:15;35.80;;;21.73;;
31095;SDS011;17749;51.962;8.560;2022-12-17T18:59:42;41.00;;;22.23;;
31095;SDS011;17749;51.962;8.560;2022-12-17T19:02:09;40.80;;;21.95;;
31095;SDS011;17749;51.962;8.560;2022-12-17T19:04:40;44.97;;;23.10;;
31095;SDS011;17749;51.962;8.560;2022-12-17T19:07:08;42.38;;;23.90;;
31095;SDS011;17749;51.962;8.560;2022-12-17T19:09:35;50.83;;;24.00;;
31095;SDS011;17749;51.962;8.560;2022-12-17T19:12:06;51.78;;;26.00;;
31095;SDS011;17749;51.962;8.560;2022-12-17T19:14:34;53.63;;;24.77;;
31095;SDS011;17749;51.962;8.560;2022-12-17T19:17:02;48.15;;;25.75;;
31095;SDS011;17749;51.962;8.560;2022-12-17T19:19:29;50.17;;;25.63;;
31095;SDS011;17749;51.962;8.560;2022-12-17T19:21:57;43.83;;;22.48;;
31095;SDS011;17749;51.962;8.560;2022-12-17T19:24:25;42.40;;;20.08;;
31095;SDS011;17749;51.962;8.560;2022-12-17T19:26:52;37.45;;;17.80;;
31095;SDS011;17749;51.962;8.560;2022-12-17T19:29:19;32.90;;;16.55;;
31095;SDS011;17749;51.962;8.560;2022-12-17T19:31:47;26.13;;;14.45;;
31095;SDS011;17749;51.962;8.560;2022-12-17T19:34:14;31.77;;;15.35;;
31095;SDS011;17749;51.962;8.560;2022-12-17T19:36:45;26.55;;;15.45;;
31095;SDS011;17749;51.962;8.560;2022-12-17T19:39:14;24.60;;;13.35;;
31095;SDS011;17749;51.962;8.560;2022-12-17T19:41:44;23.02;;;13.95;;
31095;SDS011;17749;51.962;8.560;2022-12-17T19:44:14;29.83;;;15.38;;
31095;SDS011;17749;51.962;8.560;2022-12-17T19:46:42;24.98;;;14.02;;
31095;SDS011;17749;51.962;8.560;2022-12-17T19:49:10;21.70;;;13.10;;
31095;SDS011;17749;51.962;8.560;2022-12-17T19:51:38;30.27;;;14.73;;
31095;SDS011;17749;51.962;8.560;2022-12-17T19:54:05;23.92;;;13.40;;
31095;SDS011;17749;51.962;8.560;2022-12-17T19:56:34;25.67;;;13.43;;
31095;SDS011;17749;51.962;8.560;2022-12-17T19:59:04;25.88;;;15.45;;
31095;SDS011;17749;51.962;8.560;2022-12-17T20:01:34;26.83;;;13.98;;
31095;SDS011;17749;51.962;8.560;2022-12-17T20:06:31;53.70;;;22.08;;
31095;SDS011;17749;51.962;8.560;2022-12-17T20:08:59;74.30;;;27.33;;
31095;SDS011;17749;51.962;8.560;2022-12-17T20:11:27;101.38;;;32.83;;
31095;SDS011;17749;51.962;8.560;2022-12-17T20:14:06;125.68;;;38.60;;
31095;SDS011;17749;51.962;8.560;2022-12-17T20:16:36;78.07;;;35.25;;
31095;SDS011;17749;51.962;8.560;2022-12-17T20:19:05;67.78;;;27.58;;
31095;SDS011;17749;51.962;8.560;2022-12-17T20:21:33;47.00;;;21.90;;
31095;SDS011;17749;51.962;8.560;2022-12-17T20:24:00;35.83;;;17.48;;
31095;SDS011;17749;51.962;8.560;2022-12-17T20:26:27;34.42;;;18.58;;
31095;SDS011;17749;51.962;8.560;2022-12-17T20:28:56;40.30;;;20.48;;
31095;SDS011;17749;51.962;8.560;2022-12-17T20:31:25;31.60;;;18.33;;
31095;SDS011;17749;51.962;8.560;2022-12-17T20:33:52;31.27;;;16.92;;
31095;SDS011;17749;51.962;8.560;2022-12-17T20:36:20;27.27;;;17.27;;
31095;SDS011;17749;51.962;8.560;2022-12-17T20:38:47;32.10;;;15.32;;
31095;SDS011;17749;51.962;8.560;2022-12-17T20:41:19;27.77;;;15.57;;
31095;SDS011;17749;51.962;8.560;2022-12-17T20:43:47;24.45;;;14.48;;
31095;SDS011;17749;51.962;8.560;2022-12-17T20:46:16;27.90;;;14.60;;
31095;SDS011;17749;51.962;8.560;2022-12-17T20:48:45;26.13;;;14.43;;
31095;SDS011;17749;51.962;8.560;2022-12-17T20:51:14;23.27;;;14.85;;
31095;SDS011;17749;51.962;8.560;2022-12-17T20:53:44;26.55;;;14.80;;
31095;SDS011;17749;51.962;8.560;2022-12-17T20:56:15;26.92;;;14.80;;
31095;SDS011;17749;51.962;8.560;2022-12-17T20:58:44;27.00;;;14.75;;
31095;SDS011;17749;51.962;8.560;2022-12-17T21:01:15;29.65;;;15.65;;
31095;SDS011;17749;51.962;8.560;2022-12-17T21:03:46;30.60;;;15.07;;
31095;SDS011;17749;51.962;8.560;2022-12-17T21:08:46;26.42;;;14.30;;
31095;SDS011;17749;51.962;8.560;2022-12-17T21:13:43;26.85;;;14.88;;
31095;SDS011;17749;51.962;8.560;2022-12-17T21:16:33;24.40;;;15.23;;
31095;SDS011;17749;51.962;8.560;2022-12-17T21:18:59;31.42;;;14.98;;
31095;SDS011;17749;51.962;8.560;2022-12-17T21:21:28;24.42;;;13.93;;
31095;SDS011;17749;51.962;8.560;2022-12-17T21:23:56;24.48;;;12.63;;
31095;SDS011;17749;51.962;8.560;2022-12-17T21:26:31;24.75;;;12.20;;
31095;SDS011;17749;51.962;8.560;2022-12-17T21:29:00;20.75;;;10.60;;
